Nemencine, Lithuania
Current Conditions -  °F | °C
As of 3:20 PM on Thursday 23 Oct 2014 (Local Time) from EYVI Reporting Station
Clear Clear  
Wind Chill: 24°   Ceiling: Unl
Heat Index: 32°   Visibility: 6mi
Dew Point: 14°   Wind: 10mph
Humidity: 47%   Direction: 80°E
Pressure: 30.33"   Gusts: NA
Location:  54.85°N, 25.48°E
Report Text: EYVI 231220Z 08009KT 040V120 CAVOK 00/M10 Q1027 NOSIG
Loading
Personal Weather Stations






























Interactive Weather Map
Tropical Storm Tracking
New forecast layout! Learn more

10-Day Weather Forecast

Advertisements
Track Severe Weather on mobile